createdAt,value
2017-08-15T00:00:19.675Z,15.70
2017-08-15T00:02:47.570Z,15.70
2017-08-15T00:05:15.145Z,15.70
2017-08-15T00:07:42.728Z,15.60
2017-08-15T00:10:10.325Z,15.50
2017-08-15T00:12:37.911Z,15.50
2017-08-15T00:15:05.514Z,15.50
2017-08-15T00:17:33.854Z,15.40
2017-08-15T00:20:01.724Z,15.40
2017-08-15T00:22:29.348Z,15.40
2017-08-15T00:24:57.159Z,15.40
2017-08-15T00:27:24.756Z,15.40
2017-08-15T00:29:52.330Z,15.40
2017-08-15T00:32:19.950Z,15.40
2017-08-15T00:34:47.539Z,15.40
2017-08-15T00:37:15.408Z,15.40
2017-08-15T00:39:43.003Z,15.30
2017-08-15T00:42:10.601Z,15.40
2017-08-15T00:44:38.978Z,15.40
2017-08-15T00:47:06.555Z,15.30
2017-08-15T00:49:34.920Z,15.30
2017-08-15T00:52:03.263Z,15.30
2017-08-15T00:54:31.218Z,15.30
2017-08-15T00:56:58.798Z,15.30
2017-08-15T00:59:26.361Z,15.30
2017-08-15T01:01:53.947Z,15.20
2017-08-15T01:04:22.281Z,15.10
2017-08-15T01:06:49.872Z,15.10
2017-08-15T01:09:17.451Z,15.10
2017-08-15T01:11:46.191Z,15.10
2017-08-15T01:14:13.782Z,15.10
2017-08-15T01:16:42.134Z,15.00
2017-08-15T01:19:09.723Z,15.00
2017-08-15T01:21:38.059Z,15.00
2017-08-15T01:24:05.892Z,15.00
2017-08-15T01:26:33.459Z,15.00
2017-08-15T01:29:01.022Z,15.00
2017-08-15T01:31:28.800Z,14.90
2017-08-15T01:33:56.371Z,14.90
2017-08-15T01:36:24.238Z,14.90
2017-08-15T01:38:51.800Z,14.80
2017-08-15T01:41:19.375Z,14.80
2017-08-15T01:43:47.003Z,14.80
2017-08-15T01:46:14.622Z,14.70
2017-08-15T01:48:43.266Z,14.70
2017-08-15T01:51:10.844Z,14.70
2017-08-15T01:53:38.428Z,14.70
2017-08-15T01:56:06.788Z,14.70
2017-08-15T01:58:34.367Z,14.60
2017-08-15T02:01:02.738Z,14.70
2017-08-15T02:03:31.061Z,14.70
2017-08-15T02:05:58.692Z,14.60
2017-08-15T02:08:26.296Z,14.60
2017-08-15T02:10:53.895Z,14.60
2017-08-15T02:13:22.247Z,14.50
2017-08-15T02:15:49.844Z,14.50
2017-08-15T02:18:17.435Z,14.50
2017-08-15T02:20:45.036Z,14.50
2017-08-15T02:23:12.609Z,14.50
2017-08-15T02:25:40.986Z,14.50
2017-08-15T02:28:09.428Z,14.50
2017-08-15T02:30:37.396Z,14.50
2017-08-15T02:33:04.975Z,14.50
2017-08-15T02:35:32.547Z,14.50
2017-08-15T02:38:00.231Z,14.50
2017-08-15T02:40:27.809Z,14.50
2017-08-15T02:42:55.386Z,14.60
2017-08-15T02:45:22.960Z,14.60
2017-08-15T02:47:50.851Z,14.70
2017-08-15T02:50:18.484Z,14.70
2017-08-15T02:52:46.059Z,14.60
2017-08-15T02:55:13.641Z,14.70
2017-08-15T02:57:41.224Z,14.70
2017-08-15T03:00:08.798Z,14.70
2017-08-15T03:02:36.372Z,14.70
2017-08-15T03:05:04.360Z,14.70
2017-08-15T03:07:31.987Z,14.70
2017-08-15T03:09:59.559Z,14.70
2017-08-15T03:12:27.157Z,14.70
2017-08-15T03:14:54.755Z,14.60
2017-08-15T03:17:22.348Z,14.50
2017-08-15T03:19:49.923Z,14.50
2017-08-15T03:22:17.757Z,14.50
2017-08-15T03:24:45.336Z,14.50
2017-08-15T03:27:12.899Z,14.50
2017-08-15T03:29:40.500Z,14.40
2017-08-15T03:32:08.848Z,14.40
2017-08-15T03:34:36.452Z,14.40
2017-08-15T03:37:04.020Z,14.40
2017-08-15T03:39:31.927Z,14.40
2017-08-15T03:41:59.523Z,14.40
2017-08-15T03:44:27.859Z,14.40
2017-08-15T03:46:55.450Z,14.30
2017-08-15T03:49:23.777Z,14.40
2017-08-15T03:51:51.367Z,14.30
2017-08-15T03:54:18.944Z,14.30
2017-08-15T03:56:47.559Z,14.30
2017-08-15T03:59:15.132Z,14.30
2017-08-15T04:01:42.702Z,14.30
2017-08-15T04:04:10.320Z,14.30
2017-08-15T04:06:38.669Z,14.40
2017-08-15T04:09:06.256Z,14.30
2017-08-15T04:11:33.851Z,14.40
2017-08-15T04:14:01.736Z,14.40
2017-08-15T04:16:29.313Z,14.40
2017-08-15T04:18:57.079Z,14.40
2017-08-15T04:21:24.684Z,14.40
2017-08-15T04:23:52.254Z,14.40
2017-08-15T04:26:19.834Z,14.40
2017-08-15T04:28:47.406Z,14.50
2017-08-15T04:31:15.256Z,14.40
2017-08-15T04:33:42.828Z,14.40
2017-08-15T04:36:10.407Z,14.40
2017-08-15T04:38:38.025Z,14.50
2017-08-15T04:41:05.589Z,14.50
2017-08-15T04:43:33.186Z,14.50
2017-08-15T04:46:00.761Z,14.60
2017-08-15T04:48:29.122Z,14.70
2017-08-15T04:50:56.755Z,14.70
2017-08-15T04:53:24.360Z,14.80
2017-08-15T04:55:52.682Z,14.90
2017-08-15T04:58:20.267Z,14.90
2017-08-15T05:00:47.848Z,14.90
2017-08-15T05:03:16.502Z,15.20
2017-08-15T05:05:44.075Z,15.20
2017-08-15T05:08:11.670Z,15.30
2017-08-15T05:10:39.319Z,15.40
2017-08-15T05:13:07.675Z,15.80
2017-08-15T05:15:35.287Z,15.70
2017-08-15T05:18:02.851Z,16.00
2017-08-15T05:20:30.447Z,16.10
2017-08-15T05:22:58.038Z,16.20
2017-08-15T05:25:26.426Z,17.00
2017-08-15T05:27:54.006Z,16.90
2017-08-15T05:30:21.900Z,17.30
2017-08-15T05:32:49.484Z,17.90
2017-08-15T05:35:17.059Z,18.40
2017-08-15T05:37:44.668Z,19.30
2017-08-15T05:40:12.249Z,19.80
2017-08-15T05:42:39.852Z,19.70
2017-08-15T05:45:07.423Z,20.70
2017-08-15T05:47:35.006Z,21.90
2017-08-15T05:50:02.588Z,22.80
2017-08-15T05:52:30.485Z,23.70
2017-08-15T05:54:58.839Z,25.10
2017-08-15T05:57:26.416Z,25.00
2017-08-15T05:59:54.839Z,26.80
2017-08-15T06:02:22.428Z,26.70
2017-08-15T06:04:50.024Z,26.90
2017-08-15T06:07:17.595Z,27.10
2017-08-15T06:09:45.227Z,28.20
2017-08-15T06:12:12.803Z,28.40
2017-08-15T06:14:41.157Z,28.90
2017-08-15T06:17:08.755Z,28.90
2017-08-15T06:19:36.343Z,29.30
2017-08-15T06:22:03.922Z,28.90
2017-08-15T06:24:31.516Z,28.70
2017-08-15T06:26:59.050Z,29.00
2017-08-15T06:29:26.622Z,29.30
2017-08-15T06:31:54.219Z,29.50
2017-08-15T06:34:21.774Z,29.80
2017-08-15T06:36:49.371Z,30.10
2017-08-15T06:39:16.952Z,30.80
2017-08-15T06:41:44.657Z,31.00
2017-08-15T06:44:12.233Z,32.50
2017-08-15T06:46:39.803Z,32.60
2017-08-15T06:49:07.385Z,33.10
2017-08-15T06:51:35.239Z,33.40
2017-08-15T06:54:02.876Z,33.70
2017-08-15T06:56:30.443Z,34.20
2017-08-15T06:58:58.092Z,34.30
2017-08-15T07:01:25.667Z,35.10
2017-08-15T07:03:53.268Z,35.00
2017-08-15T07:06:21.630Z,35.90
2017-08-15T07:08:49.229Z,35.90
2017-08-15T07:11:16.800Z,36.10
2017-08-15T07:13:44.418Z,35.90
2017-08-15T07:16:11.993Z,36.20
2017-08-15T07:18:39.628Z,36.00
2017-08-15T07:21:07.309Z,36.10
2017-08-15T07:23:34.894Z,36.80
2017-08-15T07:26:02.479Z,34.90
2017-08-15T07:28:30.046Z,35.10
2017-08-15T07:30:57.640Z,35.40
2017-08-15T07:33:25.216Z,34.60
2017-08-15T07:35:53.606Z,32.90
2017-08-15T07:38:21.191Z,32.80
2017-08-15T07:40:48.861Z,33.20
2017-08-15T07:43:16.426Z,32.80
2017-08-15T07:45:44.289Z,32.00
2017-08-15T07:48:11.902Z,32.40
2017-08-15T07:50:40.262Z,33.10
2017-08-15T07:53:07.860Z,33.10
2017-08-15T07:55:35.457Z,33.50
2017-08-15T07:58:03.092Z,33.20
2017-08-15T08:00:30.701Z,34.30
2017-08-15T08:02:58.309Z,33.60
2017-08-15T08:05:25.910Z,34.70
2017-08-15T08:07:53.767Z,34.60
2017-08-15T08:10:21.327Z,35.30
2017-08-15T08:12:48.896Z,34.30
2017-08-15T08:15:16.463Z,34.20
2017-08-15T08:17:44.046Z,32.20
2017-08-15T08:20:11.720Z,30.80
2017-08-15T08:22:39.348Z,31.00
2017-08-15T08:25:07.729Z,34.00
2017-08-15T08:27:35.303Z,34.00
2017-08-15T08:30:03.952Z,34.60
2017-08-15T08:32:31.555Z,34.50
2017-08-15T08:34:59.896Z,34.90
2017-08-15T08:37:27.481Z,34.90
2017-08-15T08:39:55.819Z,37.00
2017-08-15T08:42:23.424Z,36.90
2017-08-15T08:44:51.792Z,34.60
2017-08-15T08:47:20.271Z,32.60
2017-08-15T08:49:48.629Z,31.60
2017-08-15T08:52:16.241Z,31.60
2017-08-15T08:54:43.815Z,31.20
2017-08-15T08:57:11.677Z,30.70
2017-08-15T08:59:39.262Z,29.50
2017-08-15T09:02:06.848Z,29.50
2017-08-15T09:04:34.474Z,29.20
2017-08-15T09:07:02.050Z,29.20
2017-08-15T09:09:29.634Z,29.30
2017-08-15T09:11:57.252Z,29.20
2017-08-15T09:14:25.138Z,29.40
2017-08-15T09:16:52.742Z,29.40
2017-08-15T09:19:20.327Z,29.30
2017-08-15T09:21:47.935Z,29.40
2017-08-15T09:24:15.530Z,30.10
2017-08-15T09:26:43.432Z,31.20
2017-08-15T09:29:11.032Z,33.20
2017-08-15T09:31:39.399Z,33.90
2017-08-15T09:34:07.008Z,33.90
2017-08-15T09:36:34.915Z,32.40
2017-08-15T09:39:02.519Z,31.70
2017-08-15T09:41:30.113Z,31.70
2017-08-15T09:43:57.723Z,31.50
2017-08-15T09:46:26.061Z,31.10
2017-08-15T09:48:53.660Z,31.10
2017-08-15T09:51:21.995Z,30.80
2017-08-15T09:53:49.608Z,30.80
2017-08-15T09:56:17.208Z,30.50
2017-08-15T09:58:50.921Z,30.50
2017-08-15T10:01:18.524Z,30.30
2017-08-15T10:03:46.192Z,30.50
2017-08-15T10:06:13.799Z,30.00
2017-08-15T10:08:41.400Z,30.20
2017-08-15T10:11:09.780Z,29.30
2017-08-15T10:13:38.132Z,28.30
2017-08-15T10:16:05.751Z,28.30
2017-08-15T10:18:33.384Z,27.70
2017-08-15T10:21:00.990Z,26.90
2017-08-15T10:23:28.576Z,26.20
2017-08-15T10:25:56.532Z,25.90
2017-08-15T10:28:24.114Z,25.60
2017-08-15T10:30:51.697Z,25.30
2017-08-15T10:33:20.011Z,24.30
2017-08-15T10:35:48.344Z,21.90
2017-08-15T10:38:15.986Z,19.90
2017-08-15T10:40:43.587Z,19.60
2017-08-15T10:43:11.188Z,19.50
2017-08-15T10:45:38.775Z,19.40
2017-08-15T10:48:07.283Z,19.20
2017-08-15T10:50:34.902Z,19.10
2017-08-15T10:53:02.860Z,19.10
2017-08-15T10:55:30.473Z,19.20
2017-08-15T10:57:58.056Z,19.30
2017-08-15T11:00:25.644Z,19.50
2017-08-15T11:02:53.297Z,19.50
2017-08-15T11:05:20.917Z,19.50
2017-08-15T11:07:48.528Z,19.70
2017-08-15T11:10:16.131Z,19.70
2017-08-15T11:12:43.741Z,19.60
2017-08-15T11:15:11.377Z,19.70
2017-08-15T11:17:38.976Z,19.60
2017-08-15T11:20:06.635Z,19.80
2017-08-15T11:22:34.242Z,19.90
2017-08-15T11:25:01.857Z,20.20
2017-08-15T11:27:29.445Z,20.20
2017-08-15T11:29:57.059Z,20.20
2017-08-15T11:32:24.647Z,20.50
2017-08-15T11:34:53.324Z,20.60
2017-08-15T11:37:20.953Z,20.60
2017-08-15T11:39:48.568Z,20.60
2017-08-15T11:42:16.262Z,20.50
2017-08-15T11:44:43.848Z,20.40
2017-08-15T11:47:12.065Z,20.40
2017-08-15T11:49:39.643Z,20.40
2017-08-15T11:52:07.555Z,20.30
2017-08-15T11:54:35.156Z,20.40
2017-08-15T11:57:02.755Z,20.60
2017-08-15T11:59:30.360Z,20.70
2017-08-15T12:01:58.700Z,20.70
2017-08-15T12:04:26.352Z,20.70
2017-08-15T12:06:53.954Z,20.60
2017-08-15T12:09:22.392Z,21.00
2017-08-15T12:11:50.032Z,20.90
2017-08-15T12:14:17.950Z,21.20
2017-08-15T12:16:45.541Z,21.50
2017-08-15T12:19:13.129Z,22.10
2017-08-15T12:21:40.816Z,22.50
2017-08-15T12:24:08.456Z,23.20
2017-08-15T12:26:36.094Z,24.10
2017-08-15T12:29:03.684Z,25.10
2017-08-15T12:31:31.816Z,25.40
2017-08-15T12:33:59.403Z,25.80
2017-08-15T12:36:26.970Z,25.50
2017-08-15T12:38:54.595Z,25.50
2017-08-15T12:41:22.204Z,25.10
2017-08-15T12:43:49.843Z,24.60
2017-08-15T12:46:17.444Z,24.20
2017-08-15T12:48:45.424Z,24.40
2017-08-15T12:51:13.840Z,24.00
2017-08-15T12:53:41.536Z,24.00
2017-08-15T12:56:09.199Z,24.10
2017-08-15T12:58:36.796Z,23.80
2017-08-15T13:01:05.520Z,23.90
2017-08-15T13:03:33.110Z,23.90
2017-08-15T13:06:00.701Z,23.90
2017-08-15T13:08:29.089Z,24.60
2017-08-15T13:10:56.689Z,24.50
2017-08-15T13:13:24.556Z,24.60
2017-08-15T13:15:53.792Z,24.60
2017-08-15T13:18:21.405Z,24.50
2017-08-15T13:20:49.040Z,24.40
2017-08-15T13:23:16.715Z,24.30
2017-08-15T13:25:44.332Z,24.30
2017-08-15T13:28:11.972Z,24.30
2017-08-15T13:30:39.592Z,24.30
2017-08-15T13:33:07.190Z,24.30
2017-08-15T13:35:35.293Z,24.30
2017-08-15T13:38:03.646Z,24.50
2017-08-15T13:40:31.249Z,24.40
2017-08-15T13:42:58.905Z,24.50
2017-08-15T13:45:27.251Z,25.20
2017-08-15T13:47:54.874Z,25.20
2017-08-15T13:50:22.489Z,25.60
2017-08-15T13:52:50.430Z,25.70
2017-08-15T13:55:18.019Z,25.90
2017-08-15T13:57:45.674Z,25.80
2017-08-15T14:00:13.298Z,25.70
2017-08-15T14:02:40.919Z,25.60
2017-08-15T14:05:08.562Z,25.80
2017-08-15T14:07:36.148Z,25.90
2017-08-15T14:10:03.777Z,26.20
2017-08-15T14:12:31.380Z,26.30
2017-08-15T14:14:59.038Z,26.00
2017-08-15T14:17:26.666Z,26.30
2017-08-15T14:19:55.579Z,26.30
2017-08-15T14:22:23.378Z,26.30
2017-08-15T14:24:51.068Z,26.60
2017-08-15T14:27:18.661Z,26.50
2017-08-15T14:29:46.251Z,26.50
2017-08-15T14:32:13.876Z,26.40
2017-08-15T14:34:42.238Z,26.30
2017-08-15T14:37:10.609Z,26.10
2017-08-15T14:39:38.224Z,26.10
2017-08-15T14:42:06.127Z,26.10
2017-08-15T14:44:33.750Z,26.00
2017-08-15T14:47:01.392Z,25.80
2017-08-15T14:49:29.002Z,25.90
2017-08-15T14:51:56.637Z,25.90
2017-08-15T14:54:24.258Z,26.30
2017-08-15T14:56:51.854Z,26.40
2017-08-15T14:59:19.489Z,26.00
2017-08-15T15:01:47.082Z,25.90
2017-08-15T15:04:14.680Z,25.30
2017-08-15T15:06:43.046Z,25.00
2017-08-15T15:09:11.022Z,25.00
2017-08-15T15:11:38.577Z,25.00
2017-08-15T15:14:06.196Z,24.90
2017-08-15T15:16:33.802Z,24.90
2017-08-15T15:19:01.390Z,25.00
2017-08-15T15:21:29.311Z,24.70
2017-08-15T15:23:56.892Z,24.70
2017-08-15T15:26:24.453Z,24.60
2017-08-15T15:28:52.060Z,24.40
2017-08-15T15:31:19.645Z,24.40
2017-08-15T15:33:47.649Z,24.40
2017-08-15T15:36:16.033Z,24.30
2017-08-15T15:38:43.625Z,24.30
2017-08-15T15:41:12.093Z,24.30
2017-08-15T15:43:39.686Z,24.50
2017-08-15T15:46:07.448Z,24.40
2017-08-15T15:48:35.027Z,24.40
2017-08-15T15:51:02.946Z,24.30
2017-08-15T15:53:30.535Z,24.30
2017-08-15T15:55:58.152Z,24.20
2017-08-15T15:58:25.745Z,24.30
2017-08-15T16:00:55.291Z,24.30
2017-08-15T16:03:22.886Z,24.00
2017-08-15T16:05:50.472Z,23.80
2017-08-15T16:08:18.369Z,23.90
2017-08-15T16:10:45.971Z,23.90
2017-08-15T16:13:13.573Z,23.90
2017-08-15T16:15:41.175Z,23.90
2017-08-15T16:18:10.959Z,24.00
2017-08-15T16:20:39.083Z,24.00
2017-08-15T16:23:06.859Z,24.10
2017-08-15T16:25:34.472Z,24.30
2017-08-15T16:28:02.083Z,24.60
2017-08-15T16:30:29.672Z,24.80
2017-08-15T16:32:57.685Z,24.70
2017-08-15T16:35:25.315Z,24.50
2017-08-15T16:37:52.892Z,24.50
2017-08-15T16:40:23.564Z,24.40
2017-08-15T16:42:51.205Z,24.40
2017-08-15T16:45:18.835Z,24.30
2017-08-15T16:47:46.601Z,24.20
2017-08-15T16:50:14.957Z,24.30
2017-08-15T16:52:44.250Z,24.20
2017-08-15T16:55:11.909Z,24.10
2017-08-15T16:57:39.905Z,24.00
2017-08-15T17:00:07.528Z,23.90
2017-08-15T17:05:15.151Z,23.80
2017-08-15T17:07:42.752Z,23.70
2017-08-15T17:10:11.186Z,23.60
2017-08-15T17:12:39.699Z,23.60
2017-08-15T17:15:07.657Z,23.60
2017-08-15T17:17:35.248Z,23.70
2017-08-15T17:20:03.652Z,23.60
2017-08-15T17:22:31.291Z,23.60
2017-08-15T17:24:58.981Z,23.50
2017-08-15T17:27:26.994Z,23.40
2017-08-15T17:29:54.588Z,23.40
2017-08-15T17:32:22.233Z,23.40
2017-08-15T17:34:49.853Z,23.40
2017-08-15T17:37:18.700Z,23.40
2017-08-15T17:39:46.354Z,23.40
2017-08-15T17:42:14.111Z,23.40
2017-08-15T17:44:42.494Z,23.40
2017-08-15T17:47:10.920Z,23.30
2017-08-15T17:49:38.512Z,23.20
2017-08-15T17:52:06.556Z,23.10
2017-08-15T17:54:34.263Z,23.00
2017-08-15T17:57:02.630Z,22.80
2017-08-15T17:59:32.514Z,22.80
2017-08-15T18:02:00.871Z,22.80
2017-08-15T18:04:28.977Z,22.80
2017-08-15T18:06:56.605Z,22.70
2017-08-15T18:09:24.235Z,22.70
2017-08-15T18:11:51.894Z,22.60
2017-08-15T18:14:19.513Z,22.50
2017-08-15T18:16:47.139Z,22.40
2017-08-15T18:19:14.708Z,22.40
2017-08-15T18:21:42.607Z,22.30
2017-08-15T18:24:10.212Z,22.20
2017-08-15T18:26:37.819Z,22.20
2017-08-15T18:29:05.441Z,22.10
2017-08-15T18:31:32.996Z,22.10
2017-08-15T18:34:00.900Z,22.10
2017-08-15T18:36:29.753Z,22.00
2017-08-15T18:38:57.600Z,22.00
2017-08-15T18:41:25.178Z,21.90
2017-08-15T18:43:52.767Z,21.80
2017-08-15T18:46:20.379Z,21.80
2017-08-15T18:48:49.608Z,21.50
2017-08-15T18:51:17.224Z,21.50
2017-08-15T18:53:45.836Z,21.40
2017-08-15T18:56:13.858Z,21.40
2017-08-15T18:58:41.640Z,21.40
2017-08-15T19:01:09.971Z,21.40
2017-08-15T19:03:37.758Z,21.40
2017-08-15T19:06:05.392Z,21.40
2017-08-15T19:08:33.036Z,21.50
2017-08-15T19:11:00.631Z,21.40
2017-08-15T19:13:28.512Z,21.30
2017-08-15T19:15:56.125Z,21.20
2017-08-15T19:18:23.795Z,21.10
2017-08-15T19:20:51.476Z,21.10
2017-08-15T19:23:19.109Z,21.10
2017-08-15T19:25:46.763Z,21.10
2017-08-15T19:28:14.367Z,21.20
2017-08-15T19:30:42.255Z,21.20
2017-08-15T19:33:09.869Z,21.20
2017-08-15T19:35:37.532Z,21.40
2017-08-15T19:38:05.232Z,21.40
2017-08-15T19:40:33.817Z,21.40
2017-08-15T19:43:01.444Z,21.40
2017-08-15T19:45:29.058Z,21.40
2017-08-15T19:47:57.693Z,21.30
2017-08-15T19:50:25.354Z,21.30
2017-08-15T19:52:53.131Z,21.20
2017-08-15T19:55:20.839Z,21.10
2017-08-15T19:57:48.477Z,21.00
2017-08-15T20:00:18.038Z,20.80
2017-08-15T20:02:45.680Z,20.80
2017-08-15T20:05:13.274Z,20.70
2017-08-15T20:07:46.701Z,20.70
2017-08-15T20:10:18.513Z,20.60
2017-08-15T20:12:47.095Z,20.40
2017-08-15T20:15:14.695Z,20.30
2017-08-15T20:17:42.550Z,20.30
2017-08-15T20:20:10.199Z,20.20
2017-08-15T20:22:37.863Z,20.20
2017-08-15T20:25:05.725Z,20.20
2017-08-15T20:27:37.515Z,20.00
2017-08-15T20:30:05.557Z,19.90
2017-08-15T20:32:33.158Z,19.80
2017-08-15T20:35:01.541Z,19.80
2017-08-15T20:37:29.952Z,19.70
2017-08-15T20:39:58.467Z,19.70
2017-08-15T20:42:26.324Z,19.70
2017-08-15T20:44:53.909Z,19.60
2017-08-15T20:47:21.510Z,19.50
2017-08-15T20:49:49.121Z,19.40
2017-08-15T20:52:16.717Z,19.30
2017-08-15T20:54:44.343Z,19.30
2017-08-15T20:57:12.037Z,19.30
2017-08-15T20:59:39.951Z,19.20
2017-08-15T21:02:07.537Z,19.20
2017-08-15T21:04:35.108Z,19.20
2017-08-15T21:07:03.503Z,19.20
2017-08-15T21:09:31.159Z,19.20
2017-08-15T21:11:58.769Z,19.20
2017-08-15T21:14:26.349Z,19.20
2017-08-15T21:16:54.676Z,19.10
2017-08-15T21:19:22.274Z,19.00
2017-08-15T21:21:49.971Z,19.00
2017-08-15T21:24:18.179Z,19.00
2017-08-15T21:26:46.081Z,19.00
2017-08-15T21:29:13.764Z,19.10
2017-08-15T21:31:42.114Z,19.20
2017-08-15T21:34:10.093Z,19.20
2017-08-15T21:36:37.724Z,19.10
2017-08-15T21:39:05.339Z,18.90
2017-08-15T21:41:33.724Z,18.80
2017-08-15T21:44:02.101Z,18.80
2017-08-15T21:46:29.690Z,18.80
2017-08-15T21:48:57.262Z,18.70
2017-08-15T21:51:25.369Z,18.50
2017-08-15T21:53:52.987Z,18.50
2017-08-15T21:56:20.630Z,18.70
2017-08-15T21:58:48.260Z,18.50
2017-08-15T22:01:21.680Z,18.40
2017-08-15T22:03:49.283Z,18.40
2017-08-15T22:06:16.887Z,18.30
2017-08-15T22:08:45.264Z,18.30
2017-08-15T22:11:13.616Z,18.10
2017-08-15T22:13:41.519Z,18.10
2017-08-15T22:16:10.645Z,18.10
2017-08-15T22:18:38.229Z,18.10
2017-08-15T22:21:05.860Z,18.10
2017-08-15T22:23:33.441Z,18.00
2017-08-15T22:26:01.071Z,18.10
2017-08-15T22:28:28.632Z,18.10
2017-08-15T22:30:56.470Z,18.00
2017-08-15T22:33:24.821Z,17.90
2017-08-15T22:35:52.412Z,17.90
2017-08-15T22:38:20.776Z,17.90
2017-08-15T22:40:51.723Z,17.90
2017-08-15T22:43:20.102Z,18.00
2017-08-15T22:45:48.463Z,18.00
2017-08-15T22:48:16.431Z,18.00
2017-08-15T22:50:44.011Z,18.00
2017-08-15T22:53:12.355Z,18.00
2017-08-15T22:55:40.082Z,18.00
2017-08-15T22:58:07.753Z,17.90
2017-08-15T23:00:35.364Z,17.80
2017-08-15T23:03:02.971Z,17.80
2017-08-15T23:05:30.864Z,17.70
2017-08-15T23:07:58.419Z,17.70
2017-08-15T23:10:26.078Z,17.70
2017-08-15T23:12:53.689Z,17.70
2017-08-15T23:15:21.285Z,17.60
2017-08-15T23:17:49.006Z,17.60
2017-08-15T23:20:17.343Z,17.50
2017-08-15T23:22:45.268Z,17.40
2017-08-15T23:25:12.839Z,17.40
2017-08-15T23:27:40.415Z,17.40
2017-08-15T23:30:08.024Z,17.40
2017-08-15T23:32:36.392Z,17.50
2017-08-15T23:35:03.988Z,17.40
2017-08-15T23:37:31.559Z,17.30
2017-08-15T23:39:59.452Z,17.30
2017-08-15T23:42:27.024Z,17.40
2017-08-15T23:44:54.600Z,17.30
2017-08-15T23:47:22.970Z,17.20
2017-08-15T23:49:50.539Z,17.20
2017-08-15T23:52:18.931Z,17.20
2017-08-15T23:54:47.301Z,17.30
2017-08-15T23:57:15.944Z,17.30
2017-08-15T23:59:43.514Z,17.20
